createdAt,value
2023-02-19T00:01:53.644Z,24.00
2023-02-19T00:04:23.947Z,25.17
2023-02-19T00:06:53.812Z,25.20
2023-02-19T00:09:22.129Z,23.77
2023-02-19T00:11:51.185Z,25.52
2023-02-19T00:14:21.507Z,23.30
2023-02-19T00:16:50.401Z,24.58
2023-02-19T00:19:20.483Z,24.70
2023-02-19T00:21:49.363Z,25.38
2023-02-19T00:24:19.068Z,26.65
2023-02-19T00:26:47.514Z,29.27
2023-02-19T00:29:17.729Z,30.27
2023-02-19T00:31:47.356Z,31.37
2023-02-19T00:34:16.223Z,32.03
2023-02-19T00:36:45.380Z,32.10
2023-02-19T00:39:16.098Z,29.23
2023-02-19T00:41:46.474Z,30.70
2023-02-19T00:44:15.966Z,29.23
2023-02-19T00:46:46.007Z,29.37
2023-02-19T00:49:18.281Z,32.55
2023-02-19T00:51:46.737Z,32.65
2023-02-19T00:54:15.608Z,35.00
2023-02-19T00:56:45.321Z,31.38
2023-02-19T00:59:15.382Z,32.95
2023-02-19T01:01:45.477Z,30.80
2023-02-19T01:04:15.130Z,33.20
2023-02-19T01:06:43.548Z,35.42
2023-02-19T01:09:11.792Z,27.88
2023-02-19T01:11:40.562Z,30.80
2023-02-19T01:14:10.909Z,31.77
2023-02-19T01:16:39.532Z,27.60
2023-02-19T01:19:07.921Z,29.73
2023-02-19T01:21:36.237Z,30.85
2023-02-19T01:24:05.120Z,29.40
2023-02-19T01:26:35.038Z,28.58
2023-02-19T01:29:05.739Z,24.00
2023-02-19T01:31:35.511Z,28.33
2023-02-19T01:34:06.457Z,27.52
2023-02-19T01:36:35.610Z,26.65
2023-02-19T01:39:05.731Z,27.93
2023-02-19T01:41:39.476Z,26.02
2023-02-19T01:44:09.626Z,25.42
2023-02-19T01:46:41.233Z,24.33
2023-02-19T01:49:12.929Z,27.60
2023-02-19T01:51:45.535Z,28.15
2023-02-19T01:54:17.804Z,24.90
2023-02-19T01:56:47.732Z,26.88
2023-02-19T01:59:17.352Z,29.30
2023-02-19T02:01:47.152Z,27.27
2023-02-19T02:04:16.711Z,31.60
2023-02-19T02:06:50.545Z,29.92
2023-02-19T02:09:38.308Z,26.97
2023-02-19T02:12:06.965Z,26.90
2023-02-19T02:14:37.712Z,25.67
2023-02-19T02:17:14.744Z,22.40
2023-02-19T02:20:03.744Z,20.95
2023-02-19T02:22:36.194Z,21.88
2023-02-19T02:25:31.090Z,20.33
2023-02-19T02:28:15.068Z,22.30
2023-02-19T02:30:48.306Z,18.80
2023-02-19T02:33:24.378Z,17.60
2023-02-19T02:35:55.139Z,16.90
2023-02-19T02:38:28.250Z,12.43
2023-02-19T02:40:57.108Z,15.82
2023-02-19T02:43:26.335Z,16.73
2023-02-19T02:45:57.031Z,14.77
2023-02-19T02:48:41.958Z,19.25
2023-02-19T02:51:18.918Z,17.42
2023-02-19T02:54:28.743Z,19.20
2023-02-19T02:56:59.454Z,16.65
2023-02-19T02:59:35.813Z,18.63
2023-02-19T03:02:14.541Z,13.70
2023-02-19T03:05:13.589Z,14.02
2023-02-19T03:07:46.609Z,14.20
2023-02-19T03:10:20.627Z,14.45
2023-02-19T03:13:09.610Z,13.20
2023-02-19T03:16:00.228Z,16.58
2023-02-19T03:18:50.119Z,15.75
2023-02-19T03:21:22.014Z,18.73
2023-02-19T03:24:09.714Z,21.23
2023-02-19T03:26:40.066Z,20.08
2023-02-19T03:29:26.201Z,21.37
2023-02-19T03:32:08.076Z,20.40
2023-02-19T03:34:40.198Z,19.38
2023-02-19T03:37:13.310Z,19.80
2023-02-19T03:39:45.350Z,18.45
2023-02-19T03:42:26.100Z,30.53
2023-02-19T03:45:07.846Z,21.00
2023-02-19T03:47:42.095Z,18.10
2023-02-19T03:50:18.524Z,31.92
2023-02-19T03:52:58.660Z,20.67
2023-02-19T03:55:31.422Z,21.50
2023-02-19T03:58:10.142Z,19.73
2023-02-19T04:00:44.039Z,21.05
2023-02-19T04:03:19.341Z,23.35
2023-02-19T04:05:55.038Z,22.65
2023-02-19T04:08:25.403Z,25.00
2023-02-19T04:11:01.694Z,26.92
2023-02-19T04:13:37.366Z,20.02
2023-02-19T04:16:09.983Z,18.80
2023-02-19T04:18:42.055Z,20.88
2023-02-19T04:21:12.811Z,23.10
2023-02-19T04:23:44.463Z,21.20
2023-02-19T04:26:14.841Z,20.45
2023-02-19T04:28:44.229Z,14.60
2023-02-19T04:31:14.132Z,15.23
2023-02-19T04:33:42.654Z,15.40
2023-02-19T04:36:12.733Z,19.75
2023-02-19T04:38:40.975Z,17.42
2023-02-19T04:41:10.965Z,25.98
2023-02-19T04:43:39.393Z,17.92
2023-02-19T04:46:07.851Z,17.00
2023-02-19T04:48:36.125Z,17.95
2023-02-19T04:51:07.218Z,16.95
2023-02-19T04:53:37.249Z,16.33
2023-02-19T04:56:09.819Z,15.00
2023-02-19T04:58:38.282Z,17.20
2023-02-19T05:01:06.719Z,15.40
2023-02-19T05:03:36.045Z,15.43
2023-02-19T05:06:05.745Z,18.92
2023-02-19T05:08:34.744Z,17.58
2023-02-19T05:11:06.583Z,17.63
2023-02-19T05:13:35.502Z,16.40
2023-02-19T05:16:07.448Z,20.30
2023-02-19T05:18:36.145Z,13.90
2023-02-19T05:21:04.918Z,16.30
2023-02-19T05:23:33.362Z,18.53
2023-02-19T05:26:07.686Z,15.90
2023-02-19T05:28:36.252Z,17.92
2023-02-19T05:31:07.171Z,14.63
2023-02-19T05:33:35.729Z,15.50
2023-02-19T05:36:07.528Z,15.85
2023-02-19T05:38:36.266Z,17.60
2023-02-19T05:41:15.004Z,12.40
2023-02-19T05:43:44.608Z,15.63
2023-02-19T05:46:14.291Z,16.20
2023-02-19T05:48:43.085Z,14.10
2023-02-19T05:51:13.198Z,22.23
2023-02-19T05:53:42.955Z,17.23
2023-02-19T05:56:27.702Z,16.85
2023-02-19T05:58:56.350Z,15.93
2023-02-19T06:01:26.530Z,17.55
2023-02-19T06:03:57.380Z,18.42
2023-02-19T06:06:26.902Z,14.98
2023-02-19T06:08:55.582Z,14.48
2023-02-19T06:11:25.699Z,14.88
2023-02-19T06:13:53.929Z,15.77
2023-02-19T06:16:22.723Z,17.02
2023-02-19T06:18:51.558Z,16.10
2023-02-19T06:21:20.152Z,14.07
2023-02-19T06:23:48.582Z,17.10
2023-02-19T06:26:18.810Z,12.88
2023-02-19T06:28:50.116Z,14.00
2023-02-19T06:31:19.443Z,15.70
2023-02-19T06:33:48.055Z,17.00
2023-02-19T06:36:18.044Z,17.60
2023-02-19T06:38:46.809Z,16.27
2023-02-19T06:41:15.429Z,12.07
2023-02-19T06:43:43.762Z,14.32
2023-02-19T06:46:14.206Z,14.20
2023-02-19T06:48:45.738Z,14.77
2023-02-19T06:51:15.837Z,11.77
2023-02-19T06:53:44.194Z,13.82
2023-02-19T06:56:25.294Z,13.23
2023-02-19T06:58:54.843Z,10.43
2023-02-19T07:01:25.155Z,15.70
2023-02-19T07:03:53.627Z,12.23
2023-02-19T07:06:22.979Z,15.73
2023-02-19T07:08:51.798Z,12.10
2023-02-19T07:11:20.465Z,10.10
2023-02-19T07:13:48.743Z,11.15
2023-02-19T07:16:18.132Z,9.93
2023-02-19T07:18:47.788Z,9.87
2023-02-19T07:21:17.159Z,8.82
2023-02-19T07:23:46.358Z,10.27
2023-02-19T07:26:16.832Z,13.75
2023-02-19T07:28:46.060Z,12.05
2023-02-19T07:31:15.387Z,8.68
2023-02-19T07:33:44.680Z,13.63
2023-02-19T07:36:15.347Z,12.80
2023-02-19T07:38:43.662Z,14.10
2023-02-19T07:41:12.463Z,13.85
2023-02-19T07:43:41.765Z,14.02
2023-02-19T07:46:11.649Z,10.85
2023-02-19T07:48:41.475Z,14.57
2023-02-19T07:51:13.257Z,13.40
2023-02-19T07:53:43.118Z,12.37
2023-02-19T07:56:12.988Z,12.73
2023-02-19T07:58:41.976Z,11.88
2023-02-19T08:01:11.766Z,11.65
2023-02-19T08:03:39.986Z,12.45
2023-02-19T08:06:11.097Z,10.40
2023-02-19T08:08:39.760Z,12.02
2023-02-19T08:11:26.702Z,8.70
2023-02-19T08:13:55.031Z,10.27
2023-02-19T08:16:37.199Z,11.85
2023-02-19T08:19:10.693Z,11.32
2023-02-19T08:21:39.926Z,10.75
2023-02-19T08:24:08.432Z,11.63
2023-02-19T08:26:39.199Z,11.07
2023-02-19T08:29:07.834Z,10.25
2023-02-19T08:31:36.575Z,10.65
2023-02-19T08:34:05.199Z,10.18
2023-02-19T08:36:33.637Z,12.10
2023-02-19T08:39:01.882Z,8.93
2023-02-19T08:41:30.125Z,9.57
2023-02-19T08:43:59.781Z,9.20
2023-02-19T08:46:28.050Z,11.98
2023-02-19T08:48:56.282Z,10.95
2023-02-19T08:51:24.464Z,11.48
2023-02-19T08:53:52.702Z,12.18
2023-02-19T08:56:20.963Z,12.57
2023-02-19T08:58:49.298Z,27.65
2023-02-19T09:01:19.464Z,15.45
2023-02-19T09:03:47.802Z,22.95
2023-02-19T09:06:17.869Z,10.40
2023-02-19T09:08:46.189Z,17.73
2023-02-19T09:11:14.871Z,11.50
2023-02-19T09:13:43.654Z,11.75
2023-02-19T09:16:12.930Z,18.80
2023-02-19T09:18:42.499Z,15.80
2023-02-19T09:21:11.213Z,10.20
2023-02-19T09:23:39.678Z,8.70
2023-02-19T09:26:10.216Z,10.38
2023-02-19T09:28:41.856Z,7.80
2023-02-19T09:31:13.453Z,16.48
2023-02-19T09:33:45.661Z,7.55
2023-02-19T09:36:14.897Z,12.60
2023-02-19T09:38:43.416Z,8.40
2023-02-19T09:41:19.472Z,7.13
2023-02-19T09:43:48.035Z,8.43
2023-02-19T09:46:27.244Z,8.10
2023-02-19T09:49:07.719Z,12.30
2023-02-19T09:51:38.962Z,11.50
2023-02-19T09:54:16.097Z,11.43
2023-02-19T09:56:44.646Z,10.80
2023-02-19T09:59:21.750Z,9.45
2023-02-19T10:01:53.285Z,10.40
2023-02-19T10:04:22.922Z,8.13
2023-02-19T10:06:51.757Z,9.23
2023-02-19T10:09:23.620Z,7.72
2023-02-19T10:11:54.813Z,10.18
2023-02-19T10:14:30.968Z,6.70
2023-02-19T10:17:02.163Z,8.60
2023-02-19T10:19:32.081Z,8.20
2023-02-19T10:22:01.455Z,10.15
2023-02-19T10:24:31.974Z,3.25
2023-02-19T10:27:00.138Z,1.88
2023-02-19T10:29:28.359Z,1.77
2023-02-19T10:32:18.240Z,1.38
2023-02-19T10:34:48.229Z,3.70
2023-02-19T10:37:18.901Z,1.02
2023-02-19T10:39:49.078Z,2.10
2023-02-19T10:42:20.088Z,1.00
2023-02-19T10:44:52.938Z,1.20
2023-02-19T10:47:24.628Z,1.10
2023-02-19T10:49:58.127Z,2.40
2023-02-19T10:52:29.649Z,1.13
2023-02-19T10:54:59.220Z,1.20
2023-02-19T10:57:33.115Z,2.47
2023-02-19T11:00:04.969Z,2.33
2023-02-19T11:02:33.533Z,1.30
2023-02-19T11:05:19.879Z,1.73
2023-02-19T11:07:50.977Z,1.60
2023-02-19T11:10:29.295Z,1.70
2023-02-19T11:13:00.392Z,1.38
2023-02-19T11:15:30.974Z,1.30
2023-02-19T11:18:03.772Z,1.50
2023-02-19T11:20:33.932Z,1.58
2023-02-19T11:23:17.987Z,1.10
2023-02-19T11:25:48.468Z,1.10
2023-02-19T11:28:29.469Z,1.30
2023-02-19T11:31:16.005Z,1.60
2023-02-19T11:33:53.062Z,1.67
2023-02-19T11:36:43.736Z,1.38
2023-02-19T11:39:22.597Z,1.40
2023-02-19T11:42:29.261Z,1.30
2023-02-19T11:45:17.476Z,1.60
2023-02-19T11:48:00.760Z,2.45
2023-02-19T11:50:42.713Z,2.70
2023-02-19T11:53:22.881Z,2.10
2023-02-19T11:56:01.070Z,3.55
2023-02-19T11:58:58.002Z,5.15
2023-02-19T12:01:39.811Z,1.63
2023-02-19T12:04:41.495Z,1.30
2023-02-19T12:07:21.209Z,2.35
2023-02-19T12:10:05.237Z,1.55
2023-02-19T12:12:57.648Z,2.53
2023-02-19T12:15:36.438Z,1.30
2023-02-19T12:18:35.483Z,2.47
2023-02-19T12:21:15.941Z,1.20
2023-02-19T12:24:07.119Z,1.85
2023-02-19T12:26:45.142Z,3.25
2023-02-19T12:29:26.283Z,1.70
2023-02-19T12:32:30.578Z,1.20
2023-02-19T12:35:26.823Z,1.10
2023-02-19T12:38:08.085Z,1.15
2023-02-19T12:40:51.247Z,1.88
2023-02-19T12:43:22.525Z,1.30
2023-02-19T12:45:55.795Z,1.10
2023-02-19T12:48:31.017Z,1.30
2023-02-19T12:51:04.082Z,4.30
2023-02-19T12:53:43.151Z,1.20
2023-02-19T12:56:18.511Z,1.60
2023-02-19T12:58:51.864Z,1.80
2023-02-19T13:01:26.481Z,1.20
2023-02-19T13:04:12.131Z,1.40
2023-02-19T13:06:46.279Z,2.50
2023-02-19T13:09:19.545Z,1.10
2023-02-19T13:11:51.726Z,1.20
2023-02-19T13:14:28.555Z,1.20
2023-02-19T13:17:01.510Z,1.50
2023-02-19T13:19:31.800Z,1.40
2023-02-19T13:22:25.936Z,2.20
2023-02-19T13:24:56.020Z,3.47
2023-02-19T13:27:53.125Z,1.98
2023-02-19T13:30:41.120Z,2.08
2023-02-19T13:33:24.022Z,2.10
2023-02-19T13:36:22.584Z,4.72
2023-02-19T13:38:51.428Z,3.90
2023-02-19T13:41:22.818Z,3.15
2023-02-19T13:43:58.445Z,4.43
2023-02-19T13:46:36.764Z,4.55
2023-02-19T13:49:43.973Z,2.08
2023-02-19T13:52:40.857Z,3.75
2023-02-19T13:55:48.527Z,2.70
2023-02-19T13:58:50.089Z,2.10
2023-02-19T14:01:18.562Z,2.20
2023-02-19T14:03:54.633Z,2.10
2023-02-19T14:06:22.898Z,2.00
2023-02-19T14:08:56.054Z,1.70
2023-02-19T14:12:01.568Z,2.58
2023-02-19T14:14:37.013Z,2.50
2023-02-19T14:17:25.666Z,2.57
2023-02-19T14:19:57.716Z,3.50
2023-02-19T14:23:05.330Z,3.60
2023-02-19T14:25:45.972Z,3.40
2023-02-19T14:28:27.175Z,3.80
2023-02-19T14:30:57.870Z,4.88
2023-02-19T14:33:28.642Z,3.97
2023-02-19T14:36:01.914Z,3.15
2023-02-19T14:38:36.893Z,4.40
2023-02-19T14:41:06.562Z,3.73
2023-02-19T14:43:36.378Z,3.45
2023-02-19T14:46:09.420Z,3.70
2023-02-19T14:48:41.570Z,3.90
2023-02-19T14:51:16.099Z,5.28
2023-02-19T14:53:46.193Z,4.60
2023-02-19T14:56:22.464Z,3.88
2023-02-19T14:59:09.246Z,1.90
2023-02-19T15:01:37.797Z,1.20
2023-02-19T15:04:07.228Z,1.40
2023-02-19T15:06:37.429Z,1.50
2023-02-19T15:09:08.086Z,1.38
2023-02-19T15:11:37.091Z,1.70
2023-02-19T15:14:07.656Z,1.50
2023-02-19T15:16:36.967Z,1.00
2023-02-19T15:19:09.191Z,1.40
2023-02-19T15:21:44.461Z,2.15
2023-02-19T15:24:16.528Z,2.80
2023-02-19T15:26:50.361Z,2.70
2023-02-19T15:29:20.456Z,3.10
2023-02-19T15:31:50.407Z,3.40
2023-02-19T15:34:20.974Z,3.40
2023-02-19T15:36:53.306Z,2.70
2023-02-19T15:39:24.439Z,3.55
2023-02-19T15:41:59.099Z,2.85
2023-02-19T15:44:37.973Z,3.30
2023-02-19T15:47:16.018Z,4.53
2023-02-19T15:49:53.172Z,5.63
2023-02-19T15:52:32.024Z,6.22
2023-02-19T15:55:06.018Z,7.97
2023-02-19T15:57:42.189Z,10.43
2023-02-19T16:00:16.539Z,7.32
2023-02-19T16:02:45.904Z,11.48
2023-02-19T16:05:17.904Z,6.97
2023-02-19T16:07:47.558Z,7.90
2023-02-19T16:10:24.390Z,5.85
2023-02-19T16:13:00.228Z,6.38
2023-02-19T16:15:29.887Z,6.38
2023-02-19T16:17:59.293Z,7.00
2023-02-19T16:20:30.250Z,6.10
2023-02-19T16:23:04.163Z,8.50
2023-02-19T16:25:37.865Z,9.30
2023-02-19T16:28:13.968Z,5.60
2023-02-19T16:30:43.216Z,6.75
2023-02-19T16:33:22.185Z,9.10
2023-02-19T16:35:52.413Z,6.20
2023-02-19T16:38:22.315Z,6.75
2023-02-19T16:41:13.474Z,6.57
2023-02-19T16:43:43.933Z,8.02
2023-02-19T16:46:13.818Z,6.20
2023-02-19T16:48:42.187Z,4.50
2023-02-19T16:51:25.360Z,6.70
2023-02-19T16:53:55.185Z,6.18
2023-02-19T16:56:23.857Z,5.65
2023-02-19T16:58:52.166Z,5.82
2023-02-19T17:01:20.451Z,6.50
2023-02-19T17:03:48.896Z,5.15
2023-02-19T17:06:17.550Z,5.88
2023-02-19T17:08:46.232Z,5.00
2023-02-19T17:11:17.940Z,5.65
2023-02-19T17:13:47.564Z,6.07
2023-02-19T17:16:20.166Z,4.88
2023-02-19T17:18:48.611Z,5.57
2023-02-19T17:21:19.204Z,6.45
2023-02-19T17:23:47.787Z,6.07
2023-02-19T17:26:18.701Z,6.10
2023-02-19T17:28:47.052Z,6.35
2023-02-19T17:31:15.539Z,7.63
2023-02-19T17:33:44.506Z,5.60
2023-02-19T17:36:18.696Z,6.85
2023-02-19T17:38:47.348Z,10.60
2023-02-19T17:41:16.964Z,6.57
2023-02-19T17:43:45.704Z,8.20
2023-02-19T17:46:16.889Z,6.70
2023-02-19T17:48:45.435Z,5.88
2023-02-19T17:51:14.082Z,8.27
2023-02-19T17:53:42.900Z,7.53
2023-02-19T17:56:16.714Z,6.15
2023-02-19T17:58:46.365Z,6.50
2023-02-19T18:01:15.253Z,9.95
2023-02-19T18:03:44.359Z,10.40
2023-02-19T18:06:12.785Z,17.17
2023-02-19T18:08:42.152Z,12.55
2023-02-19T18:11:10.658Z,18.00
2023-02-19T18:13:39.261Z,9.75
2023-02-19T18:16:09.902Z,11.07
2023-02-19T18:18:38.492Z,11.50
2023-02-19T18:21:10.404Z,10.88
2023-02-19T18:23:39.269Z,9.70
2023-02-19T18:26:10.449Z,9.73
2023-02-19T18:28:39.254Z,6.28
2023-02-19T18:31:09.482Z,3.33
2023-02-19T18:33:37.786Z,2.73
2023-02-19T18:36:11.413Z,2.77
2023-02-19T18:38:40.160Z,2.35
2023-02-19T18:41:13.416Z,3.08
2023-02-19T18:43:42.642Z,1.80
2023-02-19T18:46:12.578Z,3.15
2023-02-19T18:48:41.181Z,2.88
2023-02-19T18:51:11.936Z,3.13
2023-02-19T18:53:40.443Z,2.28
2023-02-19T18:56:09.196Z,3.20
2023-02-19T18:58:37.432Z,3.30
2023-02-19T19:01:06.106Z,4.20
2023-02-19T19:03:36.622Z,3.58
2023-02-19T19:06:05.621Z,4.87
2023-02-19T19:08:33.863Z,8.43
2023-02-19T19:11:02.090Z,3.05
2023-02-19T19:13:30.342Z,3.80
2023-02-19T19:15:58.588Z,4.38
2023-02-19T19:18:27.954Z,5.20
2023-02-19T19:21:03.101Z,5.20
2023-02-19T19:23:31.626Z,5.53
2023-02-19T19:25:59.874Z,6.55
2023-02-19T19:28:28.159Z,6.25
2023-02-19T19:30:56.403Z,8.15
2023-02-19T19:33:27.731Z,8.85
2023-02-19T19:35:57.556Z,8.85
2023-02-19T19:38:25.862Z,12.83
2023-02-19T19:40:54.235Z,12.23
2023-02-19T19:43:22.577Z,7.75
2023-02-19T19:45:51.290Z,7.95
2023-02-19T19:48:19.589Z,8.05
2023-02-19T19:50:47.995Z,5.57
2023-02-19T19:53:17.949Z,8.98
2023-02-19T19:55:46.437Z,6.72
2023-02-19T19:58:14.646Z,6.18
2023-02-19T20:00:42.906Z,6.15
2023-02-19T20:03:11.229Z,5.68
2023-02-19T20:05:39.510Z,8.55
2023-02-19T20:08:07.827Z,8.60
2023-02-19T20:10:37.526Z,11.30
2023-02-19T20:13:06.444Z,7.00
2023-02-19T20:15:35.011Z,8.40
2023-02-19T20:18:04.089Z,8.40
2023-02-19T20:20:32.400Z,13.40
2023-02-19T20:23:00.567Z,12.23
2023-02-19T20:25:29.203Z,11.70
2023-02-19T20:27:58.788Z,11.55
2023-02-19T20:30:27.136Z,9.10
2023-02-19T20:32:55.714Z,10.07
2023-02-19T20:35:28.603Z,9.45
2023-02-19T20:37:57.260Z,8.88
2023-02-19T20:40:27.798Z,8.18
2023-02-19T20:42:56.091Z,10.45
2023-02-19T20:45:25.701Z,11.75
2023-02-19T20:47:54.106Z,15.32
2023-02-19T20:50:23.360Z,9.38
2023-02-19T20:52:51.677Z,13.52
2023-02-19T20:55:19.977Z,11.88
2023-02-19T20:57:48.159Z,17.48
2023-02-19T21:00:17.251Z,12.18
2023-02-19T21:02:46.984Z,13.93
2023-02-19T21:05:15.337Z,10.82
2023-02-19T21:07:43.532Z,10.57
2023-02-19T21:10:12.119Z,11.93
2023-02-19T21:12:41.933Z,14.82
2023-02-19T21:15:10.944Z,10.88
2023-02-19T21:17:39.243Z,13.20
2023-02-19T21:20:10.440Z,15.93
2023-02-19T21:22:38.782Z,14.32
2023-02-19T21:25:07.931Z,12.43
2023-02-19T21:27:36.213Z,11.50
2023-02-19T21:30:05.102Z,10.57
2023-02-19T21:32:33.499Z,10.60
2023-02-19T21:35:01.931Z,9.05
2023-02-19T21:37:31.498Z,10.20
2023-02-19T21:40:00.535Z,11.65
2023-02-19T21:42:29.202Z,11.55
2023-02-19T21:44:57.668Z,12.95
2023-02-19T21:47:27.743Z,9.65
2023-02-19T21:49:56.161Z,8.15
2023-02-19T21:52:24.402Z,6.63
2023-02-19T21:54:54.178Z,8.90
2023-02-19T21:57:22.620Z,9.00
2023-02-19T21:59:50.970Z,8.93
2023-02-19T22:02:19.973Z,8.98
2023-02-19T22:04:53.531Z,10.60
2023-02-19T22:07:22.577Z,8.75
2023-02-19T22:09:51.163Z,9.25
2023-02-19T22:12:21.255Z,9.00
2023-02-19T22:14:49.574Z,9.35
2023-02-19T22:17:17.831Z,10.60
2023-02-19T22:19:46.139Z,9.00
2023-02-19T22:22:14.536Z,8.38
2023-02-19T22:24:42.762Z,8.80
2023-02-19T22:27:11.102Z,9.38
2023-02-19T22:29:40.830Z,8.65
2023-02-19T22:32:09.285Z,9.55
2023-02-19T22:34:40.424Z,9.70
2023-02-19T22:37:08.981Z,9.47
2023-02-19T22:39:37.298Z,10.10
2023-02-19T22:42:05.865Z,8.98
2023-02-19T22:44:35.484Z,9.80
2023-02-19T22:47:05.464Z,9.60
2023-02-19T22:49:34.238Z,10.70
2023-02-19T22:52:05.678Z,13.18
2023-02-19T22:54:33.909Z,12.10
2023-02-19T22:57:02.263Z,13.38
2023-02-19T22:59:30.598Z,13.43
2023-02-19T23:01:59.266Z,15.77
2023-02-19T23:04:28.965Z,13.43
2023-02-19T23:06:57.264Z,11.50
2023-02-19T23:09:28.413Z,16.48
2023-02-19T23:12:02.906Z,15.35
2023-02-19T23:14:31.362Z,15.05
2023-02-19T23:16:59.742Z,16.42
2023-02-19T23:19:29.549Z,16.37
2023-02-19T23:21:58.224Z,15.65
2023-02-19T23:24:26.591Z,16.98
2023-02-19T23:26:55.568Z,16.17
2023-02-19T23:29:25.834Z,17.73
2023-02-19T23:31:54.651Z,14.98
2023-02-19T23:34:24.422Z,13.93
2023-02-19T23:36:55.436Z,14.40
2023-02-19T23:39:23.757Z,13.65
2023-02-19T23:41:53.947Z,11.70
2023-02-19T23:44:23.680Z,11.70
2023-02-19T23:46:53.033Z,11.07
2023-02-19T23:49:21.590Z,13.43
2023-02-19T23:51:49.821Z,9.68
2023-02-19T23:54:19.460Z,8.38
2023-02-19T23:56:47.913Z,9.30
2023-02-19T23:59:16.247Z,9.60
